createdAt,value
2023-04-12T00:02:03.019Z,99827.47
2023-04-12T00:04:34.478Z,99824.63
2023-04-12T00:07:02.848Z,99815.59
2023-04-12T00:09:32.059Z,99818.91
2023-04-12T00:12:00.107Z,99799.28
2023-04-12T00:14:28.017Z,99800.41
2023-04-12T00:16:56.073Z,99802.13
2023-04-12T00:19:25.876Z,99802.91
2023-04-12T00:21:53.802Z,99802.56
2023-04-12T00:24:21.695Z,99798.88
2023-04-12T00:26:50.966Z,99789.56
2023-04-12T00:29:18.883Z,99788.28
2023-04-12T00:31:46.840Z,99787.09
2023-04-12T00:34:14.776Z,99779.59
2023-04-12T00:36:42.686Z,99770.63
2023-04-12T00:39:10.767Z,99784.47
2023-04-12T00:41:38.760Z,99775.59
2023-04-12T00:44:08.194Z,99778.22
2023-04-12T00:46:36.249Z,99763.44
2023-04-12T00:49:04.196Z,99762.66
2023-04-12T00:51:33.769Z,99760.50
2023-04-12T00:54:02.239Z,99753.13
2023-04-12T00:56:30.254Z,99758.97
2023-04-12T00:58:58.256Z,99798.44
2023-04-12T01:01:28.295Z,99813.03
2023-04-12T01:04:01.150Z,99784.66
2023-04-12T01:06:35.622Z,99758.34
2023-04-12T01:09:06.092Z,99773.28
2023-04-12T01:11:38.680Z,99758.88
2023-04-12T01:14:09.123Z,99763.88
2023-04-12T01:16:41.028Z,99756.16
2023-04-12T01:19:19.842Z,99754.66
2023-04-12T01:21:54.886Z,99735.56
2023-04-12T01:24:29.093Z,99758.88
2023-04-12T01:27:00.757Z,99749.34
2023-04-12T01:29:30.245Z,99743.81
2023-04-12T01:32:00.371Z,99742.03
2023-04-12T01:34:29.669Z,99728.16
2023-04-12T01:36:58.212Z,99731.13
2023-04-12T01:39:26.440Z,99728.31
2023-04-12T01:41:54.330Z,99714.09
2023-04-12T01:44:22.262Z,99712.19
2023-04-12T01:46:51.836Z,99713.50
2023-04-12T01:49:19.739Z,99712.41
2023-04-12T01:51:51.423Z,99681.13
2023-04-12T01:54:21.322Z,99691.72
2023-04-12T01:56:51.955Z,99680.75
2023-04-12T01:59:20.075Z,99666.66
2023-04-12T02:01:48.094Z,99662.00
2023-04-12T02:04:17.508Z,99645.00
2023-04-12T02:06:45.499Z,99644.81
2023-04-12T02:09:13.434Z,99648.88
2023-04-12T02:11:41.310Z,99652.13
2023-04-12T02:14:10.186Z,99644.72
2023-04-12T02:16:38.133Z,99645.25
2023-04-12T02:19:08.981Z,99652.88
2023-04-12T02:21:43.060Z,99703.03
2023-04-12T02:24:11.335Z,99691.75
2023-04-12T02:26:40.185Z,99677.28
2023-04-12T02:29:09.121Z,99676.03
2023-04-12T02:31:39.072Z,99665.22
2023-04-12T02:34:07.122Z,99667.94
2023-04-12T02:36:35.321Z,99664.22
2023-04-12T02:39:05.176Z,99666.63
2023-04-12T02:41:33.049Z,99665.66
2023-04-12T02:44:01.155Z,99667.41
2023-04-12T02:46:29.132Z,99657.50
2023-04-12T02:48:57.085Z,99671.53
2023-04-12T02:51:24.992Z,99665.19
2023-04-12T02:53:52.852Z,99669.41
2023-04-12T02:56:22.104Z,99657.09
2023-04-12T02:58:50.014Z,99652.81
2023-04-12T03:01:17.892Z,99643.88
2023-04-12T03:03:45.836Z,99635.81
2023-04-12T03:06:13.770Z,99640.81
2023-04-12T03:08:41.660Z,99631.28
2023-04-12T03:11:09.534Z,99650.03
2023-04-12T03:13:38.813Z,99653.09
2023-04-12T03:16:21.688Z,99650.41
2023-04-12T03:18:50.222Z,99642.69
2023-04-12T03:21:18.263Z,99626.19
2023-04-12T03:23:46.371Z,99631.38
2023-04-12T03:26:14.250Z,99633.19
2023-04-12T03:28:45.913Z,99620.19
2023-04-12T03:31:13.830Z,99607.97
2023-04-12T03:33:41.709Z,99608.03
2023-04-12T03:36:11.130Z,99620.44
2023-04-12T03:38:38.970Z,99616.16
2023-04-12T03:41:07.447Z,99616.94
2023-04-12T03:43:36.137Z,99617.81
2023-04-12T03:46:05.924Z,99607.88
2023-04-12T03:48:33.855Z,99593.00
2023-04-12T03:51:08.607Z,99599.31
2023-04-12T03:53:37.056Z,99587.69
2023-04-12T03:56:05.015Z,99586.69
2023-04-12T03:58:34.039Z,99583.00
2023-04-12T04:01:03.900Z,99579.25
2023-04-12T04:03:35.071Z,99577.31
2023-04-12T04:06:03.482Z,99576.25
2023-04-12T04:08:32.620Z,99571.81
2023-04-12T04:11:00.564Z,99577.06
2023-04-12T04:13:28.444Z,99571.56
2023-04-12T04:16:00.714Z,99563.53
2023-04-12T04:18:28.601Z,99557.97
2023-04-12T04:20:58.662Z,99547.22
2023-04-12T04:23:27.802Z,99551.06
2023-04-12T04:25:55.757Z,99539.25
2023-04-12T04:28:23.625Z,99537.97
2023-04-12T04:30:51.756Z,99541.97
2023-04-12T04:33:20.097Z,99533.22
2023-04-12T04:35:48.016Z,99526.59
2023-04-12T04:38:17.347Z,99545.59
2023-04-12T04:40:46.606Z,99568.16
2023-04-12T04:43:18.608Z,99551.66
2023-04-12T04:45:48.784Z,99546.03
2023-04-12T04:48:18.780Z,99548.25
2023-04-12T04:50:46.742Z,99549.59
2023-04-12T04:53:14.645Z,99546.22
2023-04-12T04:55:43.929Z,99528.59
2023-04-12T04:58:12.788Z,99541.50
2023-04-12T05:00:40.855Z,99549.06
2023-04-12T05:03:08.750Z,99558.44
2023-04-12T05:05:36.846Z,99557.69
2023-04-12T05:08:04.872Z,99560.50
2023-04-12T05:10:32.774Z,99542.00
2023-04-12T05:13:02.028Z,99534.88
2023-04-12T05:15:31.431Z,99520.59
2023-04-12T05:17:59.378Z,99523.06
2023-04-12T05:20:27.468Z,99518.59
2023-04-12T05:22:55.766Z,99514.66
2023-04-12T05:25:23.639Z,99511.91
2023-04-12T05:27:52.281Z,99516.91
2023-04-12T05:30:21.659Z,99527.97
2023-04-12T05:32:49.549Z,99517.78
2023-04-12T05:35:17.595Z,99490.19
2023-04-12T05:37:45.534Z,99531.94
2023-04-12T05:40:13.768Z,99530.81
2023-04-12T05:42:41.645Z,99551.97
2023-04-12T05:45:10.951Z,99560.13
2023-04-12T05:47:40.268Z,99553.81
2023-04-12T05:50:09.173Z,99532.81
2023-04-12T05:52:37.929Z,99519.53
2023-04-12T05:55:06.761Z,99498.94
2023-04-12T05:57:34.651Z,99484.31
2023-04-12T06:00:02.749Z,99492.75
2023-04-12T06:02:30.900Z,99498.16
2023-04-12T06:05:00.754Z,99503.63
2023-04-12T06:07:28.797Z,99497.56
2023-04-12T06:09:56.678Z,99500.91
2023-04-12T06:12:24.600Z,99495.53
2023-04-12T06:14:52.498Z,99500.47
2023-04-12T06:17:20.458Z,99493.09
2023-04-12T06:19:48.702Z,99487.44
2023-04-12T06:22:18.133Z,99475.47
2023-04-12T06:24:46.076Z,99485.38
2023-04-12T06:27:13.939Z,99475.34
2023-04-12T06:29:41.810Z,99467.72
2023-04-12T06:32:09.642Z,99451.56
2023-04-12T06:34:37.740Z,99434.00
2023-04-12T06:37:05.656Z,99433.28
2023-04-12T06:39:35.024Z,99433.59
2023-04-12T06:42:02.928Z,99420.66
2023-04-12T06:44:31.011Z,99413.13
2023-04-12T06:46:59.200Z,99424.94
2023-04-12T06:49:27.152Z,99407.09
2023-04-12T06:51:55.094Z,99399.53
2023-04-12T06:54:24.024Z,99391.41
2023-04-12T06:56:53.320Z,99396.53
2023-04-12T06:59:21.231Z,99377.16
2023-04-12T07:01:49.189Z,99383.44
2023-04-12T07:04:17.187Z,99405.81
2023-04-12T07:06:45.168Z,99411.00
2023-04-12T07:09:13.090Z,99389.91
2023-04-12T07:11:41.198Z,99383.66
2023-04-12T07:14:10.534Z,99360.66
2023-04-12T07:16:38.752Z,99346.13
2023-04-12T07:19:06.821Z,99352.47
2023-04-12T07:21:34.682Z,99351.19
2023-04-12T07:24:02.639Z,99325.25
2023-04-12T07:26:31.445Z,99311.63
2023-04-12T07:28:59.953Z,99300.56
2023-04-12T07:31:30.606Z,99304.75
2023-04-12T07:33:58.628Z,99315.03
2023-04-12T07:36:27.570Z,99304.56
2023-04-12T07:38:56.574Z,99291.06
2023-04-12T07:41:24.971Z,99267.78
2023-04-12T07:43:52.824Z,99275.19
2023-04-12T07:46:21.088Z,99293.75
2023-04-12T07:48:50.500Z,99283.69
2023-04-12T07:51:18.598Z,99273.78
2023-04-12T07:53:48.428Z,99264.88
2023-04-12T07:56:16.456Z,99259.22
2023-04-12T07:58:44.412Z,99235.81
2023-04-12T08:01:13.217Z,99214.34
2023-04-12T08:03:41.442Z,99191.41
2023-04-12T08:06:11.161Z,99213.84
2023-04-12T08:08:39.280Z,99196.78
2023-04-12T08:11:07.423Z,99205.50
2023-04-12T08:13:35.550Z,99185.13
2023-04-12T08:16:03.490Z,99188.75
2023-04-12T08:18:31.414Z,99180.78
2023-04-12T08:20:59.420Z,99146.53
2023-04-12T08:23:28.934Z,99156.59
2023-04-12T08:26:03.274Z,99148.16
2023-04-12T08:28:31.376Z,99159.25
2023-04-12T08:30:59.794Z,99150.13
2023-04-12T08:33:27.930Z,99170.59
2023-04-12T08:35:56.712Z,99125.06
2023-04-12T08:38:37.244Z,99139.28
2023-04-12T08:41:14.749Z,99125.00
2023-04-12T08:43:44.360Z,99086.78
2023-04-12T08:46:13.756Z,99161.91
2023-04-12T08:48:42.111Z,99168.56
2023-04-12T08:51:10.239Z,99154.84
2023-04-12T08:53:38.217Z,99166.59
2023-04-12T08:56:08.328Z,99146.38
2023-04-12T08:58:37.672Z,99106.72
2023-04-12T09:01:05.965Z,99119.22
2023-04-12T09:03:34.734Z,99112.50
2023-04-12T09:06:04.073Z,99105.50
2023-04-12T09:08:31.951Z,99091.19
2023-04-12T09:10:59.854Z,99085.53
2023-04-12T09:13:34.687Z,99055.72
2023-04-12T09:16:04.066Z,99054.41
2023-04-12T09:18:37.269Z,99056.03
2023-04-12T09:21:08.628Z,99019.91
2023-04-12T09:23:37.390Z,99033.06
2023-04-12T09:26:06.825Z,99013.97
2023-04-12T09:28:34.909Z,99009.63
2023-04-12T09:31:04.676Z,98984.56
2023-04-12T09:33:36.659Z,98982.66
2023-04-12T09:36:06.086Z,98952.69
2023-04-12T09:38:36.875Z,98967.25
2023-04-12T09:41:19.670Z,98958.34
2023-04-12T09:43:48.794Z,98977.13
2023-04-12T09:46:18.419Z,99008.13
2023-04-12T09:48:50.294Z,98972.22
2023-04-12T09:51:25.452Z,98956.22
2023-04-12T09:53:53.586Z,98967.47
2023-04-12T09:56:22.946Z,98961.63
2023-04-12T09:58:52.331Z,98962.31
2023-04-12T10:01:22.847Z,98944.34
2023-04-12T10:03:51.736Z,98933.25
2023-04-12T10:06:20.557Z,98937.06
2023-04-12T10:08:48.454Z,98922.28
2023-04-12T10:11:16.646Z,98922.09
2023-04-12T10:13:44.709Z,98927.25
2023-04-12T10:16:12.643Z,98926.25
2023-04-12T10:18:42.430Z,98903.13
2023-04-12T10:21:11.088Z,98872.25
2023-04-12T10:23:38.981Z,98899.44
2023-04-12T10:26:07.091Z,98890.06
2023-04-12T10:28:35.043Z,98881.06
2023-04-12T10:31:04.969Z,98903.84
2023-04-12T10:33:32.862Z,98888.69
2023-04-12T10:36:06.923Z,98890.72
2023-04-12T10:38:46.394Z,98870.81
2023-04-12T10:41:15.877Z,98886.81
2023-04-12T10:43:44.057Z,98876.22
2023-04-12T10:46:48.329Z,98870.41
2023-04-12T10:49:17.229Z,98874.88
2023-04-12T10:52:15.111Z,98858.81
2023-04-12T10:54:43.077Z,98850.91
2023-04-12T10:57:45.708Z,98858.81
2023-04-12T11:00:14.922Z,98846.31
2023-04-12T11:03:09.852Z,98850.81
2023-04-12T11:06:06.456Z,98876.22
2023-04-12T11:08:42.344Z,98885.78
2023-04-12T11:11:19.839Z,98854.81
2023-04-12T11:13:47.801Z,98824.63
2023-04-12T11:16:16.253Z,98850.06
2023-04-12T11:18:44.323Z,98855.16
2023-04-12T11:21:12.402Z,98845.00
2023-04-12T11:23:40.661Z,98843.72
2023-04-12T11:26:11.256Z,98844.22
2023-04-12T11:28:40.977Z,98828.59
2023-04-12T11:31:08.913Z,98841.59
2023-04-12T11:33:37.336Z,98802.84
2023-04-12T11:36:07.185Z,98800.34
2023-04-12T11:38:35.992Z,98795.72
2023-04-12T11:41:03.894Z,98787.75
2023-04-12T11:43:33.241Z,98793.47
2023-04-12T11:46:01.205Z,98812.84
2023-04-12T11:48:29.095Z,98788.84
2023-04-12T11:51:10.395Z,98792.28
2023-04-12T11:53:39.150Z,98804.94
2023-04-12T11:56:08.285Z,98807.78
2023-04-12T11:58:37.590Z,98825.00
2023-04-12T12:01:05.880Z,98808.50
2023-04-12T12:03:33.976Z,98827.41
2023-04-12T12:06:02.177Z,98804.28
2023-04-12T12:08:30.442Z,98831.06
2023-04-12T12:11:07.190Z,98779.59
2023-04-12T12:13:47.780Z,98856.97
2023-04-12T12:16:15.877Z,98839.16
2023-04-12T12:18:43.885Z,98828.88
2023-04-12T12:21:12.543Z,98833.00
2023-04-12T12:23:40.443Z,98836.47
2023-04-12T12:26:19.005Z,98842.78
2023-04-12T12:28:52.428Z,98845.47
2023-04-12T12:31:21.164Z,98842.31
2023-04-12T12:33:49.103Z,98831.53
2023-04-12T12:36:19.730Z,98838.09
2023-04-12T12:38:49.270Z,98841.84
2023-04-12T12:41:18.346Z,98838.81
2023-04-12T12:43:47.192Z,98835.28
2023-04-12T12:46:17.676Z,98844.25
2023-04-12T12:48:45.674Z,98821.03
2023-04-12T12:51:13.841Z,98836.34
2023-04-12T12:53:42.298Z,98832.56
2023-04-12T12:56:11.125Z,98842.41
2023-04-12T12:58:40.909Z,98810.59
2023-04-12T13:01:09.208Z,98827.59
2023-04-12T13:03:38.597Z,98850.66
2023-04-12T13:06:07.567Z,98825.72
2023-04-12T13:08:37.242Z,98833.75
2023-04-12T13:11:05.663Z,98837.88
2023-04-12T13:13:33.560Z,98834.00
2023-04-12T13:16:01.449Z,98835.31
2023-04-12T13:18:29.377Z,98847.19
2023-04-12T13:20:58.633Z,98834.00
2023-04-12T13:23:26.588Z,98836.28
2023-04-12T13:25:54.529Z,98833.00
2023-04-12T13:28:22.633Z,98829.00
2023-04-12T13:30:54.646Z,98837.13
2023-04-12T13:33:22.727Z,98815.22
2023-04-12T13:35:50.750Z,98835.25
2023-04-12T13:38:20.048Z,98825.16
2023-04-12T13:40:48.179Z,98821.63
2023-04-12T13:43:16.693Z,98818.09
2023-04-12T13:45:44.938Z,98836.50
2023-04-12T13:48:12.944Z,98818.50
2023-04-12T13:50:41.151Z,98808.88
2023-04-12T13:53:09.169Z,98809.47
2023-04-12T13:55:38.616Z,98819.91
2023-04-12T13:58:06.492Z,98831.00
2023-04-12T14:00:34.520Z,98816.50
2023-04-12T14:03:02.541Z,98834.69
2023-04-12T14:05:30.712Z,98828.28
2023-04-12T14:07:58.646Z,98830.00
2023-04-12T14:10:26.529Z,98837.16
2023-04-12T14:12:55.757Z,98854.91
2023-04-12T14:15:26.674Z,98853.56
2023-04-12T14:17:54.639Z,98853.59
2023-04-12T14:20:23.863Z,98864.00
2023-04-12T14:22:51.812Z,98873.56
2023-04-12T14:25:19.882Z,98863.41
2023-04-12T14:27:47.779Z,98872.19
2023-04-12T14:30:18.949Z,98857.44
2023-04-12T14:32:47.818Z,98859.00
2023-04-12T14:35:15.918Z,98885.03
2023-04-12T14:37:43.985Z,98885.47
2023-04-12T14:40:12.505Z,98877.19
2023-04-12T14:42:40.474Z,98896.94
2023-04-12T14:45:09.806Z,98892.81
2023-04-12T14:47:39.201Z,98899.81
2023-04-12T14:50:08.320Z,98918.91
2023-04-12T14:52:36.209Z,98917.47
2023-04-12T14:55:04.890Z,98913.16
2023-04-12T14:57:32.836Z,98924.91
2023-04-12T15:00:01.358Z,98923.97
2023-04-12T15:02:29.375Z,98935.16
2023-04-12T15:04:59.180Z,98930.50
2023-04-12T15:07:27.333Z,98933.38
2023-04-12T15:09:57.417Z,98944.53
2023-04-12T15:12:25.610Z,98954.81
2023-04-12T15:14:53.940Z,98958.00
2023-04-12T15:17:21.922Z,98964.56
2023-04-12T15:19:50.238Z,98963.72
2023-04-12T15:22:19.566Z,98971.16
2023-04-12T15:24:47.496Z,98997.31
2023-04-12T15:27:15.438Z,98971.69
2023-04-12T15:29:43.315Z,98973.41
2023-04-12T15:32:11.260Z,98990.72
2023-04-12T15:34:39.160Z,98995.31
2023-04-12T15:37:07.406Z,99001.34
2023-04-12T15:39:36.868Z,98995.84
2023-04-12T15:42:05.412Z,99001.78
2023-04-12T15:44:33.965Z,99033.75
2023-04-12T15:47:10.982Z,98986.59
2023-04-12T15:49:39.943Z,99021.53
2023-04-12T15:52:07.983Z,99016.53
2023-04-12T15:54:43.784Z,99028.75
2023-04-12T15:57:11.963Z,99049.16
2023-04-12T15:59:41.949Z,99082.63
2023-04-12T16:02:10.707Z,99097.69
2023-04-12T16:04:39.392Z,99093.03
2023-04-12T16:07:07.681Z,99083.56
2023-04-12T16:09:39.729Z,99137.94
2023-04-12T16:12:08.043Z,99106.41
2023-04-12T16:14:36.922Z,99111.72
2023-04-12T16:17:04.874Z,99121.34
2023-04-12T16:19:33.410Z,99141.03
2023-04-12T16:22:01.745Z,99151.91
2023-04-12T16:24:29.761Z,99140.00
2023-04-12T16:26:59.396Z,99191.75
2023-04-12T16:29:27.243Z,99137.56
2023-04-12T16:31:55.234Z,99154.44
2023-04-12T16:34:23.298Z,99174.97
2023-04-12T16:36:51.639Z,99160.22
2023-04-12T16:39:19.555Z,99178.38
2023-04-12T16:41:47.480Z,99182.94
2023-04-12T16:44:19.440Z,99223.69
2023-04-12T16:46:48.072Z,99191.66
2023-04-12T16:49:19.036Z,99222.72
2023-04-12T16:51:47.698Z,99221.97
2023-04-12T16:54:15.651Z,99229.00
2023-04-12T16:56:43.635Z,99249.09
2023-04-12T16:59:11.590Z,99217.69
2023-04-12T17:01:40.908Z,99243.75
2023-04-12T17:04:08.911Z,99227.78
2023-04-12T17:06:38.549Z,99260.09
2023-04-12T17:09:07.473Z,99270.84
2023-04-12T17:11:36.224Z,99276.91
2023-04-12T17:14:04.188Z,99273.59
2023-04-12T17:16:32.438Z,99269.53
2023-04-12T17:19:01.807Z,99294.41
2023-04-12T17:21:30.531Z,99310.25
2023-04-12T17:23:58.618Z,99303.97
2023-04-12T17:26:27.898Z,99301.41
2023-04-12T17:28:56.809Z,99322.66
2023-04-12T17:31:27.044Z,99333.41
2023-04-12T17:33:55.049Z,99351.56
2023-04-12T17:36:24.451Z,99375.84
2023-04-12T17:38:52.539Z,99346.84
2023-04-12T17:41:21.474Z,99338.13
2023-04-12T17:43:49.389Z,99372.53
2023-04-12T17:46:18.063Z,99326.06
2023-04-12T17:48:45.992Z,99385.63
2023-04-12T17:51:16.122Z,99387.53
2023-04-12T17:53:45.760Z,99387.44
2023-04-12T17:56:13.674Z,99404.13
2023-04-12T17:58:41.773Z,99397.09
2023-04-12T18:01:09.763Z,99399.56
2023-04-12T18:03:38.416Z,99418.16
2023-04-12T18:06:06.992Z,99401.75
2023-04-12T18:08:37.530Z,99414.78
2023-04-12T18:11:08.036Z,99430.00
2023-04-12T18:13:35.929Z,99433.97
2023-04-12T18:16:04.113Z,99450.41
2023-04-12T18:18:32.046Z,99473.78
2023-04-12T18:20:59.941Z,99479.66
2023-04-12T18:23:27.790Z,99468.53
2023-04-12T18:25:55.725Z,99468.09
2023-04-12T18:28:25.412Z,99497.69
2023-04-12T18:30:55.524Z,99519.72
2023-04-12T18:33:24.716Z,99493.22
2023-04-12T18:35:53.049Z,99528.16
2023-04-12T18:38:20.954Z,99534.59
2023-04-12T18:40:48.806Z,99543.50
2023-04-12T18:43:16.845Z,99563.00
2023-04-12T18:45:46.160Z,99567.16
2023-04-12T18:48:14.402Z,99584.75
2023-04-12T18:50:42.296Z,99579.22
2023-04-12T18:53:10.681Z,99578.81
2023-04-12T18:55:38.556Z,99600.84
2023-04-12T18:58:07.105Z,99607.78
2023-04-12T19:00:35.008Z,99624.44
2023-04-12T19:03:04.402Z,99610.88
2023-04-12T19:05:32.430Z,99616.97
2023-04-12T19:08:01.559Z,99625.63
2023-04-12T19:10:30.875Z,99662.78
2023-04-12T19:12:58.938Z,99646.69
2023-04-12T19:15:27.137Z,99658.00
2023-04-12T19:17:55.116Z,99669.53
2023-04-12T19:20:24.926Z,99668.88
2023-04-12T19:22:53.146Z,99672.19
2023-04-12T19:25:22.252Z,99666.75
2023-04-12T19:27:50.198Z,99687.31
2023-04-12T19:30:18.400Z,99694.31
2023-04-12T19:32:46.459Z,99705.66
2023-04-12T19:35:14.479Z,99719.72
2023-04-12T19:37:43.764Z,99717.69
2023-04-12T19:40:12.461Z,99730.16
2023-04-12T19:42:41.618Z,99747.00
2023-04-12T19:45:10.655Z,99740.81
2023-04-12T19:47:44.661Z,99745.09
2023-04-12T19:50:13.801Z,99760.00
2023-04-12T19:52:43.263Z,99760.00
2023-04-12T19:55:11.540Z,99763.53
2023-04-12T19:57:39.615Z,99778.78
2023-04-12T20:00:12.780Z,99782.28
2023-04-12T20:02:41.449Z,99778.88
2023-04-12T20:05:09.935Z,99772.03
2023-04-12T20:07:38.136Z,99780.88
2023-04-12T20:10:10.334Z,99795.22
2023-04-12T20:12:39.011Z,99780.81
2023-04-12T20:15:08.277Z,99794.69
2023-04-12T20:17:36.323Z,99813.41
2023-04-12T20:20:08.754Z,99797.66
2023-04-12T20:22:36.771Z,99806.69
2023-04-12T20:25:05.772Z,99830.66
2023-04-12T20:27:36.701Z,99836.81
2023-04-12T20:30:05.209Z,99854.69
2023-04-12T20:32:33.676Z,99851.09
2023-04-12T20:35:02.706Z,99850.34
2023-04-12T20:37:30.631Z,99843.50
2023-04-12T20:39:59.338Z,99855.56
2023-04-12T20:42:27.272Z,99859.97
2023-04-12T20:44:56.532Z,99860.13
2023-04-12T20:47:26.003Z,99862.91
2023-04-12T20:49:56.140Z,99851.50
2023-04-12T20:52:27.656Z,99874.88
2023-04-12T20:54:57.151Z,99849.19
2023-04-12T20:57:25.649Z,99859.09
2023-04-12T20:59:53.571Z,99861.22
2023-04-12T21:02:23.247Z,99872.78
2023-04-12T21:04:51.511Z,99878.97
2023-04-12T21:07:21.233Z,99887.91
2023-04-12T21:09:49.668Z,99873.25
2023-04-12T21:12:18.256Z,99874.00
2023-04-12T21:14:50.066Z,99885.63
2023-04-12T21:17:22.239Z,99878.84
2023-04-12T21:19:52.129Z,99891.06
2023-04-12T21:22:20.002Z,99901.59
2023-04-12T21:24:47.977Z,99923.06
2023-04-12T21:27:15.870Z,99924.09
2023-04-12T21:29:44.767Z,99926.88
2023-04-12T21:32:12.696Z,99921.44
2023-04-12T21:34:40.538Z,99943.81
2023-04-12T21:37:09.805Z,99941.16
2023-04-12T21:39:39.178Z,99952.81
2023-04-12T21:42:07.471Z,99954.63
2023-04-12T21:44:35.827Z,99963.66
2023-04-12T21:47:03.775Z,99959.19
2023-04-12T21:49:31.709Z,99961.91
2023-04-12T21:51:59.617Z,99961.16
2023-04-12T21:54:31.318Z,99981.63
2023-04-12T21:56:59.274Z,99960.66
2023-04-12T21:59:27.417Z,99984.28
2023-04-12T22:01:55.419Z,99993.97
2023-04-12T22:04:23.411Z,100007.09
2023-04-12T22:06:51.635Z,99991.13
2023-04-12T22:09:20.337Z,99996.34
2023-04-12T22:11:50.286Z,99969.56
2023-04-12T22:14:18.166Z,100003.03
2023-04-12T22:16:46.843Z,99986.25
2023-04-12T22:19:15.435Z,99994.56
2023-04-12T22:21:43.364Z,100015.94
2023-04-12T22:24:12.228Z,100006.41
2023-04-12T22:26:40.078Z,100017.81
2023-04-12T22:29:09.858Z,100021.34
2023-04-12T22:31:38.524Z,100028.28
2023-04-12T22:34:06.482Z,100030.78
2023-04-12T22:36:37.541Z,100049.56
2023-04-12T22:39:05.901Z,100054.22
2023-04-12T22:41:34.051Z,100055.53
2023-04-12T22:44:02.173Z,100031.78
2023-04-12T22:46:32.260Z,100063.34
2023-04-12T22:49:00.486Z,100032.25
2023-04-12T22:51:28.462Z,100070.53
2023-04-12T22:53:56.883Z,100080.34
2023-04-12T22:56:25.528Z,100088.41
2023-04-12T22:58:53.815Z,100092.63
2023-04-12T23:01:21.744Z,100082.75
2023-04-12T23:03:51.775Z,100094.16
2023-04-12T23:06:20.625Z,100104.53
2023-04-12T23:08:49.655Z,100094.56
2023-04-12T23:11:17.886Z,100120.91
2023-04-12T23:13:45.895Z,100110.25
2023-04-12T23:16:13.835Z,100120.03
2023-04-12T23:18:41.738Z,100114.66
2023-04-12T23:21:12.208Z,100125.31
2023-04-12T23:23:40.640Z,100114.06
2023-04-12T23:26:10.012Z,100119.47
2023-04-12T23:28:40.320Z,100117.66
2023-04-12T23:31:08.471Z,100118.69
2023-04-12T23:33:36.384Z,100115.94
2023-04-12T23:36:05.153Z,100127.72
2023-04-12T23:38:34.696Z,100140.94
2023-04-12T23:41:04.005Z,100113.72
2023-04-12T23:43:32.972Z,100125.06
2023-04-12T23:46:00.976Z,100128.56
2023-04-12T23:48:29.084Z,100124.09
2023-04-12T23:50:56.966Z,100115.94
2023-04-12T23:53:24.989Z,100130.97
2023-04-12T23:55:54.377Z,100138.88
2023-04-12T23:58:22.543Z,100130.03
